Forseti — V2PV4 — position and weather

sailwx.info

Track history (hours):
 
Tides and Currents Weather Stations Pressure Air Temp Water Temp Dewpoint Dewpoint Depression Visibility Wind Speed Wind Dir Waves Ship Positions

Forseti

Last reported at 2014-Oct-23 20:33 UTC. Time now 2014-Oct-23 20:36 UTC.
Position N 53°36' E 005°10'.

Length 85 m; draft 5.4 m.

Type: Cargo ship. MMSI: 304010297.

Date/timePositionNaut miles runAvg speedWind from/ knotsBaromVisibWave heightAir tempDewpointWater temp
2014-Oct-23 20:33N 53°36' E 005°10'8 7.6
2014-Oct-23 19:33N 53°38' E 005°22'7 7.3
2014-Oct-23 18:33N 53°40' E 005°34'7 7.2
2014-Oct-23 17:33N 53°43' E 005°45'8 8.0
2014-Oct-23 16:32N 53°45' E 005°58'56 9.3
2014-Oct-23 10:33N 53°60' E 007°30'8 8.2
2014-Oct-23 09:33N 54°02' E 007°43'8 8.1
2014-Oct-23 08:33N 54°01' E 007°57'17 7.8
2014-Oct-23 06:25N 53°59' E 008°25'910.8
2014-Oct-23 05:33N 53°56' E 008°40'1111.4
2014-Oct-23 04:33N 53°51' E 008°57'7 5.0
2014-Oct-23 03:09N 53°53' E 009°09'0 0.1
2014-Oct-23 02:33N 53°53' E 009°09'0 0.1
2014-Oct-23 01:27N 53°53' E 009°09'0 0.0
2014-Oct-23 00:33N 53°53' E 009°09'0 0.0
2014-Oct-22 23:33N 53°53' E 009°09'0 0.0
2014-Oct-22 22:33N 53°53' E 009°09'0 0.1
2014-Oct-22 21:33N 53°53' E 009°09'25 2.2
2014-Oct-22 10:33N 54°12' E 009°34'8 7.8
2014-Oct-22 09:33N 54°18' E 009°43'4 4.3
2014-Oct-22 08:33N 54°22' E 009°47'8 7.6
2014-Oct-22 07:33N 54°21' E 010°00'5 4.9
2014-Oct-22 06:33N 54°22' E 010°08'4 4.1
2014-Oct-22 05:33N 54°25' E 010°13'9 8.6
2014-Oct-22 04:33N 54°31' E 010°23'9 9.0
2014-Oct-22 03:33N 54°35' E 010°38'3414.8
2014-Oct-22 01:14N 54°29' E 011°36'1 1.4
2014-Oct-22 00:27N 54°29' E 011°38'4 1.8
2014-Oct-21 22:20N 54°27' E 011°44'5 6.9
2014-Oct-21 21:33N 54°27' E 011°53'7 7.5
2014-Oct-21 20:33N 54°27' E 012°06'74 7.4
2014-Oct-21 10:33N 55°04' E 013°57'8 7.7
2014-Oct-21 09:33N 55°08' E 014°08'8 8.3
2014-Oct-21 08:33N 55°14' E 014°18'8 8.1
2014-Oct-21 07:33N 55°20' E 014°27'8 8.3
2014-Oct-21 06:33N 55°26' E 014°37'8 8.4
2014-Oct-21 05:33N 55°31' E 014°50'8 8.0
2014-Oct-21 04:33N 55°35' E 015°02'8 8.0
2014-Oct-21 03:33N 55°39' E 015°14'39 7.9
2014-Oct-20 22:33N 55°59' E 016°15'  
Track history (hours):
 
Tides and Currents Weather Stations Pressure Air Temp Water Temp Dewpoint Dewpoint Depression Visibility Wind Speed Wind Dir Waves Ship Positions

Forseti

Last reported at 2014-Oct-23 20:33 UTC. Time now 2014-Oct-23 20:36 UTC.
Position N 53°36' E 005°10'.

Length 85 m; draft 5.4 m.

Type: Cargo ship. MMSI: 304010297.

Date/timePositionNaut miles runAvg speedWind from/ knotsBaromVisibWave heightAir tempDewpointWater temp
2014-Oct-23 20:33N 53°36' E 005°10'8 7.6
2014-Oct-23 19:33N 53°38' E 005°22'7 7.3
2014-Oct-23 18:33N 53°40' E 005°34'7 7.2
2014-Oct-23 17:33N 53°43' E 005°45'8 8.0
2014-Oct-23 16:32N 53°45' E 005°58'56 9.3
2014-Oct-23 10:33N 53°60' E 007°30'8 8.2
2014-Oct-23 09:33N 54°02' E 007°43'8 8.1
2014-Oct-23 08:33N 54°01' E 007°57'17 7.8
2014-Oct-23 06:25N 53°59' E 008°25'910.8
2014-Oct-23 05:33N 53°56' E 008°40'1111.4
2014-Oct-23 04:33N 53°51' E 008°57'7 5.0
2014-Oct-23 03:09N 53°53' E 009°09'0 0.1
2014-Oct-23 02:33N 53°53' E 009°09'0 0.1
2014-Oct-23 01:27N 53°53' E 009°09'0 0.0
2014-Oct-23 00:33N 53°53' E 009°09'0 0.0
2014-Oct-22 23:33N 53°53' E 009°09'0 0.0
2014-Oct-22 22:33N 53°53' E 009°09'0 0.1
2014-Oct-22 21:33N 53°53' E 009°09'25 2.2
2014-Oct-22 10:33N 54°12' E 009°34'8 7.8
2014-Oct-22 09:33N 54°18' E 009°43'4 4.3
2014-Oct-22 08:33N 54°22' E 009°47'8 7.6
2014-Oct-22 07:33N 54°21' E 010°00'5 4.9
2014-Oct-22 06:33N 54°22' E 010°08'4 4.1
2014-Oct-22 05:33N 54°25' E 010°13'9 8.6
2014-Oct-22 04:33N 54°31' E 010°23'9 9.0
2014-Oct-22 03:33N 54°35' E 010°38'3414.8
2014-Oct-22 01:14N 54°29' E 011°36'1 1.4
2014-Oct-22 00:27N 54°29' E 011°38'4 1.8
2014-Oct-21 22:20N 54°27' E 011°44'5 6.9
2014-Oct-21 21:33N 54°27' E 011°53'7 7.5
2014-Oct-21 20:33N 54°27' E 012°06'74 7.4
2014-Oct-21 10:33N 55°04' E 013°57'8 7.7
2014-Oct-21 09:33N 55°08' E 014°08'8 8.3
2014-Oct-21 08:33N 55°14' E 014°18'8 8.1
2014-Oct-21 07:33N 55°20' E 014°27'8 8.3
2014-Oct-21 06:33N 55°26' E 014°37'8 8.4
2014-Oct-21 05:33N 55°31' E 014°50'8 8.0
2014-Oct-21 04:33N 55°35' E 015°02'8 8.0
2014-Oct-21 03:33N 55°39' E 015°14'39 7.9
2014-Oct-20 22:33N 55°59' E 016°15'  

Dump ship's entire track history